Alice Paul 2 — FQDT — position and weather

sailwx.info

Track history (hours):
 
Tides and Currents Weather Stations Pressure Air Temp Water Temp Dewpoint Dewpoint Depression Visibility Wind Speed Wind Dir Waves Ship Positions

Alice Paul 2

Last reported at 2018-Feb-19 04:00 UTC. Time now 2018-Feb-19 04:19 UTC.
Position N 47°40' W 003°29'.

Length 13 m.

Type: Fishing. MMSI: 228153900.

Date/timePositionNaut miles runAvg speedWind from/ knotsBaromVisibWave heightAir tempDewpointWater temp
2018-Feb-19 04:00N 47°40' W 003°29'4 7.9
2018-Feb-19 03:30N 47°41' W 003°23'2 4.9
2018-Feb-19 03:00N 47°44' W 003°22'0 0.0
2018-Feb-19 02:30N 47°44' W 003°22'3 6.2
2018-Feb-19 02:00N 47°41' W 003°24'4 0.2
2018-Feb-18 05:27N 47°40' W 003°30'4 8.1
2018-Feb-18 05:00N 47°41' W 003°25'3 6.7
2018-Feb-18 04:30N 47°44' W 003°22'0 0.0
2018-Feb-17 02:06N 47°44' W 003°22'0 0.0
2018-Feb-17 02:00N 47°44' W 003°22'0 0.0
2018-Feb-17 01:30N 47°44' W 003°22'3 5.9
2018-Feb-17 01:00N 47°41' W 003°24'8 0.4
2018-Feb-16 04:41N 47°38' W 003°35'2 8.2
2018-Feb-16 04:23N 47°39' W 003°32'3 8.4
2018-Feb-16 04:00N 47°40' W 003°28'4 8.0
2018-Feb-16 03:30N 47°42' W 003°22'2 3.0
2018-Feb-16 02:59N 47°44' W 003°22'0 0.3
2018-Feb-16 02:30N 47°44' W 003°22'0 0.0
2018-Feb-16 02:00N 47°44' W 003°22'3 6.5
2018-Feb-16 01:30N 47°41' W 003°22'4 8.1
2018-Feb-16 01:00N 47°37' W 003°24'4 7.7
2018-Feb-16 00:30N 47°34' W 003°28'6 0.2
2018-Feb-14 17:41N 47°40' W 003°28'1 8.4
2018-Feb-14 17:31N 47°40' W 003°26'4 7.8
2018-Feb-14 16:59N 47°43' W 003°22'1 1.1
2018-Feb-14 16:28N 47°44' W 003°22'0 0.0
2018-Feb-13 10:39N 47°44' W 003°22'0 0.0
2018-Feb-13 10:30N 47°44' W 003°22'0 0.0
2018-Feb-13 10:00N 47°44' W 003°22'0 0.0
2018-Feb-13 09:30N 47°44' W 003°22'0 0.0
2018-Feb-13 09:00N 47°44' W 003°22'0 0.0
2018-Feb-13 08:30N 47°44' W 003°22'0 0.0
2018-Feb-13 08:00N 47°44' W 003°22'0 0.0
2018-Feb-13 07:30N 47°44' W 003°22'0 0.0
2018-Feb-13 03:27N 47°44' W 003°22'0 0.0
2018-Feb-13 03:00N 47°44' W 003°22'0 0.0
2018-Feb-13 02:30N 47°44' W 003°22'3 6.1
2018-Feb-13 02:00N 47°41' W 003°22'4 8.0
2018-Feb-13 01:30N 47°37' W 003°23'4 7.5
2018-Feb-13 01:00N 47°35' W 003°28'5 0.3
2018-Feb-12 05:33N 47°39' W 003°32'0 8.7
2018-Feb-12 05:30N 47°39' W 003°31'4 8.4
2018-Feb-12 05:00N 47°41' W 003°25'4 7.3
2018-Feb-12 04:30N 47°44' W 003°22'0 0.1
2018-Feb-12 03:58N 47°44' W 003°22'  
2018-Feb-09 22:53N 47°44' W 003°22'0 0.0
2018-Feb-09 22:44N 47°44' W 003°22'  
Track history (hours):
 
Tides and Currents Weather Stations Pressure Air Temp Water Temp Dewpoint Dewpoint Depression Visibility Wind Speed Wind Dir Waves Ship Positions

Alice Paul 2

Last reported at 2018-Feb-19 04:00 UTC. Time now 2018-Feb-19 04:19 UTC.
Position N 47°40' W 003°29'.

Length 13 m.

Type: Fishing. MMSI: 228153900.

Date/timePositionNaut miles runAvg speedWind from/ knotsBaromVisibWave heightAir tempDewpointWater temp
2018-Feb-19 04:00N 47°40' W 003°29'4 7.9
2018-Feb-19 03:30N 47°41' W 003°23'2 4.9
2018-Feb-19 03:00N 47°44' W 003°22'0 0.0
2018-Feb-19 02:30N 47°44' W 003°22'3 6.2
2018-Feb-19 02:00N 47°41' W 003°24'4 0.2
2018-Feb-18 05:27N 47°40' W 003°30'4 8.1
2018-Feb-18 05:00N 47°41' W 003°25'3 6.7
2018-Feb-18 04:30N 47°44' W 003°22'0 0.0
2018-Feb-17 02:06N 47°44' W 003°22'0 0.0
2018-Feb-17 02:00N 47°44' W 003°22'0 0.0
2018-Feb-17 01:30N 47°44' W 003°22'3 5.9
2018-Feb-17 01:00N 47°41' W 003°24'8 0.4
2018-Feb-16 04:41N 47°38' W 003°35'2 8.2
2018-Feb-16 04:23N 47°39' W 003°32'3 8.4
2018-Feb-16 04:00N 47°40' W 003°28'4 8.0
2018-Feb-16 03:30N 47°42' W 003°22'2 3.0
2018-Feb-16 02:59N 47°44' W 003°22'0 0.3
2018-Feb-16 02:30N 47°44' W 003°22'0 0.0
2018-Feb-16 02:00N 47°44' W 003°22'3 6.5
2018-Feb-16 01:30N 47°41' W 003°22'4 8.1
2018-Feb-16 01:00N 47°37' W 003°24'4 7.7
2018-Feb-16 00:30N 47°34' W 003°28'6 0.2
2018-Feb-14 17:41N 47°40' W 003°28'1 8.4
2018-Feb-14 17:31N 47°40' W 003°26'4 7.8
2018-Feb-14 16:59N 47°43' W 003°22'1 1.1
2018-Feb-14 16:28N 47°44' W 003°22'0 0.0
2018-Feb-13 10:39N 47°44' W 003°22'0 0.0
2018-Feb-13 10:30N 47°44' W 003°22'0 0.0
2018-Feb-13 10:00N 47°44' W 003°22'0 0.0
2018-Feb-13 09:30N 47°44' W 003°22'0 0.0
2018-Feb-13 09:00N 47°44' W 003°22'0 0.0
2018-Feb-13 08:30N 47°44' W 003°22'0 0.0
2018-Feb-13 08:00N 47°44' W 003°22'0 0.0
2018-Feb-13 07:30N 47°44' W 003°22'0 0.0
2018-Feb-13 03:27N 47°44' W 003°22'0 0.0
2018-Feb-13 03:00N 47°44' W 003°22'0 0.0
2018-Feb-13 02:30N 47°44' W 003°22'3 6.1
2018-Feb-13 02:00N 47°41' W 003°22'4 8.0
2018-Feb-13 01:30N 47°37' W 003°23'4 7.5
2018-Feb-13 01:00N 47°35' W 003°28'5 0.3
2018-Feb-12 05:33N 47°39' W 003°32'0 8.7
2018-Feb-12 05:30N 47°39' W 003°31'4 8.4
2018-Feb-12 05:00N 47°41' W 003°25'4 7.3
2018-Feb-12 04:30N 47°44' W 003°22'0 0.1
2018-Feb-12 03:58N 47°44' W 003°22'  
2018-Feb-09 22:53N 47°44' W 003°22'0 0.0
2018-Feb-09 22:44N 47°44' W 003°22'  

Dump ship's entire track history